Time;durP1;ratioP1;P1;durP2;ratioP2;P2;SDS_P1;SDS_P2;PMS_P1;PMS_P2;Temp;Humidity;BMP_temperature;BMP_pressure;BME280_temperature;BME280_humidity;BME280_pressure;Samples;Min_cycle;Max_cycle;Signal;HPM_P1;HPM_P2
2024/03/15 00:00:11;;;;;;;;;;;13.40;99.90;;;13.46;67.43;99655.50;4942475;29;20308;-83
2024/03/15 00:02:39;;;;;;;;;;;13.50;99.90;;;13.46;67.34;99655.50;4942183;29;19926;-83
2024/03/15 00:05:08;;;;;;;;;;;13.40;99.90;;;13.43;67.17;99652.53;4942358;29;20029;-83
2024/03/15 00:07:35;;;;;;;;;;;13.40;99.90;;;13.39;67.35;99650.34;4942305;29;20437;-83
2024/03/15 00:10:03;;;;;;;;;;;13.40;99.90;;;13.35;67.57;99653.78;4926112;29;19958;-83
2024/03/15 00:12:30;;;;;;;;;;;13.30;99.90;;;13.36;67.61;99653.53;4941563;29;19973;-83
2024/03/15 00:14:57;;;;;;;;;;;13.30;99.90;;;13.36;67.79;99644.69;4942170;29;20384;-83
2024/03/15 00:17:27;;;;;;;;;;;13.30;99.90;;;13.36;67.89;99640.13;4941261;29;19930;-83
2024/03/15 00:19:54;;;;;;;;;;;13.30;99.90;;;13.35;67.75;99645.75;4941925;29;19931;-83
2024/03/15 00:22:23;;;;;;;;;;;13.30;99.90;;;13.31;68.05;99647.28;4926969;29;19957;-83
2024/03/15 00:24:51;;;;;;;;;;;13.30;99.90;;;13.31;68.08;99644.63;4941730;29;19930;-83
2024/03/15 00:27:18;;;;;;;;;;;13.30;99.90;;;13.32;68.37;99641.72;4925578;29;19927;-83
2024/03/15 00:29:47;;;;;;;;;;;13.30;99.90;;;13.29;68.45;99634.16;4926162;29;19980;-83
2024/03/15 00:32:14;;;;;;;;;;;13.30;99.90;;;13.32;68.59;99628.31;4925908;29;19926;-83
2024/03/15 00:34:41;;;;;;;;;;;13.30;99.90;;;13.32;68.27;99639.03;4941528;29;19931;-83
2024/03/15 00:37:08;;;;;;;;;;;13.30;99.90;;;13.35;68.45;99633.16;4941635;29;19978;-83
2024/03/15 00:39:37;;;;;;;;;;;13.30;99.90;;;13.35;68.65;99632.34;4941806;29;19934;-83
2024/03/15 00:42:04;;;;;;;;;;;13.30;99.90;;;13.38;68.72;99632.66;4925279;29;19990;-83
2024/03/15 00:44:32;;;;;;;;;;;13.30;99.90;;;13.37;68.58;99630.22;4941522;29;20387;-83
2024/03/15 00:46:59;;;;;;;;;;;13.30;99.90;;;13.36;68.67;99631.28;4941885;29;20289;-83
2024/03/15 00:49:26;;;;;;;;;;;13.30;99.90;;;13.34;68.67;99628.06;4941897;29;19938;-82
2024/03/15 00:51:53;;;;;;;;;;;13.30;99.90;;;13.30;68.95;99630.41;4941818;29;19927;-83
2024/03/15 00:54:23;;;;;;;;;;;13.30;99.90;;;13.35;68.83;99633.16;4943252;29;19930;-82
2024/03/15 00:56:50;;;;;;;;;;;13.30;99.90;;;13.36;68.63;99623.25;4946060;29;19932;-83
2024/03/15 00:59:17;;;;;;;;;;;13.30;99.90;;;13.37;68.74;99617.66;4945267;29;19926;-83
2024/03/15 01:01:44;;;;;;;;;;;13.20;99.90;;;13.31;68.75;99620.50;4945564;29;20126;-83
2024/03/15 01:04:13;;;;;;;;;;;13.20;99.90;;;13.30;68.66;99622.38;4945345;29;19978;-83
2024/03/15 01:06:40;;;;;;;;;;;13.20;99.90;;;13.28;69.13;99616.47;4929987;29;19926;-83
2024/03/15 01:09:08;;;;;;;;;;;13.20;99.90;;;13.30;69.21;99617.03;4929716;29;19927;-83
2024/03/15 01:11:35;;;;;;;;;;;13.20;99.90;;;13.30;69.13;99621.59;4945793;29;20013;-83
2024/03/15 01:14:04;;;;;;;;;;;13.20;99.90;;;13.31;69.22;99620.50;4929501;29;19926;-83
2024/03/15 01:16:31;;;;;;;;;;;13.20;99.90;;;13.32;68.91;99617.59;4946268;29;19937;-82
2024/03/15 01:19:00;;;;;;;;;;;13.20;99.90;;;13.33;69.19;99613.88;4929514;29;20335;-83
2024/03/15 01:21:27;;;;;;;;;;;13.20;99.90;;;13.26;69.07;99610.56;4929527;29;19999;-83
2024/03/15 01:23:55;;;;;;;;;;;13.20;99.90;;;13.27;69.32;99601.44;4929495;29;20539;-83
2024/03/15 01:26:23;;;;;;;;;;;13.20;99.90;;;13.26;69.20;99601.72;4929297;29;20311;-83
2024/03/15 01:28:50;;;;;;;;;;;13.30;99.90;;;13.27;69.26;99598.78;4944701;29;20066;-83
2024/03/15 01:31:18;;;;;;;;;;;13.30;99.90;;;13.32;69.08;99601.53;4945466;29;19973;-83
2024/03/15 01:33:46;;;;;;;;;;;13.30;99.90;;;13.31;69.12;99599.91;4929060;29;19931;-83
2024/03/15 01:36:14;;;;;;;;;;;13.30;99.90;;;13.32;69.21;99604.22;4944886;29;19930;-83
2024/03/15 01:38:41;;;;;;;;;;;13.30;99.90;;;13.33;69.15;99607.69;4928975;29;20288;-82
2024/03/15 01:41:09;;;;;;;;;;;13.30;99.90;;;13.31;69.09;99591.06;4929155;29;19926;-83
2024/03/15 01:43:38;;;;;;;;;;;13.30;99.90;;;13.31;69.14;99597.22;4929198;29;19926;-83
2024/03/15 01:46:05;;;;;;;;;;;13.30;99.90;;;13.36;69.04;99601.81;4945602;29;19972;-83
2024/03/15 01:48:32;;;;;;;;;;;13.30;99.90;;;13.35;69.12;99601.03;4944852;29;20319;-83
2024/03/15 01:51:00;;;;;;;;;;;13.30;99.90;;;13.31;69.24;99605.25;4928978;29;19927;-83
2024/03/15 01:53:27;;;;;;;;;;;13.30;99.90;;;13.33;69.32;99597.00;4944808;29;19930;-82
2024/03/15 01:55:54;;;;;;;;;;;13.30;99.90;;;13.34;69.02;99598.59;4929171;29;19989;-83
2024/03/15 01:58:23;;;;;;;;;;;13.30;99.90;;;13.33;68.99;99591.63;4929123;29;20011;-83
2024/03/15 02:00:50;;;;;;;;;;;13.30;99.90;;;13.31;69.06;99593.72;4944848;29;19927;-83
2024/03/15 02:03:19;;;;;;;;;;;13.30;99.90;;;13.29;69.05;99591.31;4945287;29;20001;-83
2024/03/15 02:05:46;;;;;;;;;;;13.30;99.90;;;13.24;69.02;99588.59;4928038;29;20311;-83
2024/03/15 02:08:17;;;;;;;;;;;13.30;99.90;;;13.24;69.00;99593.94;4945064;29;19997;-83
2024/03/15 02:10:45;;;;;;;;;;;13.30;99.90;;;13.20;69.23;99584.75;4944773;29;19938;-83
2024/03/15 02:13:12;;;;;;;;;;;13.30;99.90;;;13.24;69.20;99596.63;4928396;29;20388;-83
2024/03/15 02:15:41;;;;;;;;;;;13.20;99.90;;;13.26;69.20;99597.16;4928834;29;20311;-83
2024/03/15 02:18:08;;;;;;;;;;;13.20;99.90;;;13.25;69.19;99587.53;4928797;29;19982;-83
2024/03/15 02:20:36;;;;;;;;;;;13.20;99.90;;;13.22;69.24;99584.53;4945015;29;20356;-83
2024/03/15 02:23:04;;;;;;;;;;;13.20;99.90;;;13.22;69.30;99590.69;4928750;29;19927;-83
2024/03/15 02:25:31;;;;;;;;;;;13.20;99.90;;;13.21;69.49;99591.72;4928889;29;19961;-83
2024/03/15 02:27:58;;;;;;;;;;;13.20;99.90;;;13.21;69.29;99594.41;4944556;29;19935;-83
2024/03/15 02:30:26;;;;;;;;;;;13.20;99.90;;;13.21;69.59;99593.59;4943860;29;19930;-83
2024/03/15 02:32:53;;;;;;;;;;;13.20;99.90;;;13.20;69.55;99586.63;4927680;29;19932;-83
2024/03/15 02:35:21;;;;;;;;;;;13.20;99.90;;;13.20;69.10;99584.75;4944001;29;20391;-83
2024/03/15 02:37:48;;;;;;;;;;;13.20;99.90;;;13.22;69.50;99584.53;4944637;29;20450;-83
2024/03/15 02:40:15;;;;;;;;;;;13.20;99.90;;;13.24;69.49;99585.09;4943802;29;19931;-83
2024/03/15 02:42:43;;;;;;;;;;;13.20;99.90;;;13.20;69.35;99586.63;4943971;29;19976;-83
2024/03/15 02:45:10;;;;;;;;;;;13.20;99.90;;;13.20;69.09;99587.44;4944535;29;19926;-83
2024/03/15 02:47:38;;;;;;;;;;;13.20;99.90;;;13.17;69.25;99582.56;4944133;29;20403;-82
2024/03/15 02:50:07;;;;;;;;;;;13.20;99.90;;;13.18;69.27;99588.75;4942973;29;19977;-83
2024/03/15 02:52:35;;;;;;;;;;;13.20;99.90;;;13.17;69.39;99582.56;4927967;29;19927;-83
2024/03/15 02:55:02;;;;;;;;;;;13.20;99.90;;;13.19;69.38;99583.13;4943534;29;19937;-83
2024/03/15 02:57:30;;;;;;;;;;;13.20;99.90;;;13.21;69.27;99588.22;4944189;29;19926;-83
2024/03/15 02:59:58;;;;;;;;;;;13.20;99.90;;;13.17;69.29;99585.25;4928187;29;20054;-82
2024/03/15 03:02:25;;;;;;;;;;;13.20;99.90;;;13.18;69.29;99586.88;4944341;29;20018;-83
2024/03/15 03:04:52;;;;;;;;;;;13.20;99.90;;;13.15;69.27;99585.50;4943568;29;19997;-83
2024/03/15 03:07:20;;;;;;;;;;;13.20;99.90;;;13.17;69.39;99582.56;4942794;29;20380;-83
2024/03/15 03:09:47;;;;;;;;;;;13.20;99.90;;;13.17;69.61;99587.91;4927952;29;19961;-83
2024/03/15 03:12:14;;;;;;;;;;;13.20;99.90;;;13.17;69.64;99597.81;4927906;29;20022;-83
2024/03/15 03:14:42;;;;;;;;;;;13.20;99.90;;;13.13;69.30;99598.34;4927881;29;19927;-83
2024/03/15 03:17:10;;;;;;;;;;;13.10;99.90;;;13.15;69.54;99596.22;4942565;29;19927;-83
2024/03/15 03:19:38;;;;;;;;;;;13.20;99.90;;;13.10;69.45;99598.00;4943201;29;20462;-83
2024/03/15 03:22:06;;;;;;;;;;;13.20;99.90;;;13.13;69.36;99594.84;4942764;29;20392;-83
2024/03/15 03:24:33;;;;;;;;;;;13.10;99.90;;;13.14;69.39;99593.78;4942909;29;19937;-82
2024/03/15 03:27:00;;;;;;;;;;;13.20;99.90;;;13.15;69.43;99590.84;4942877;29;20009;-83
2024/03/15 03:29:28;;;;;;;;;;;13.10;99.90;;;13.18;69.35;99594.91;4943477;29;19978;-83
2024/03/15 03:31:56;;;;;;;;;;;13.10;99.90;;;13.18;69.39;99600.28;4927359;29;19934;-83
2024/03/15 03:34:23;;;;;;;;;;;13.10;99.90;;;13.15;69.37;99595.41;4943133;29;19934;-83
2024/03/15 03:36:50;;;;;;;;;;;13.10;99.90;;;13.18;69.42;99588.75;4927217;29;20025;-83
2024/03/15 03:39:20;;;;;;;;;;;13.10;99.90;;;13.19;69.55;99585.81;4943354;29;19930;-82
2024/03/15 03:41:48;;;;;;;;;;;13.10;99.90;;;13.17;69.21;99590.59;4926852;29;19997;-82
2024/03/15 03:44:16;;;;;;;;;;;13.10;99.90;;;13.15;69.52;99596.22;4927128;29;19930;-83
2024/03/15 03:46:43;;;;;;;;;;;13.10;99.90;;;13.17;69.35;99598.63;4942848;29;20384;-83
2024/03/15 03:49:10;;;;;;;;;;;13.10;99.90;;;13.18;69.24;99594.91;4926173;29;19961;-83
2024/03/15 03:51:38;;;;;;;;;;;13.10;99.90;;;13.20;69.12;99594.66;4926690;29;19957;-82
2024/03/15 03:54:06;;;;;;;;;;;13.10;99.90;;;13.20;69.18;99598.13;4942912;29;19998;-83
2024/03/15 03:56:33;;;;;;;;;;;13.10;99.90;;;13.19;69.09;99595.72;4942434;29;19937;-82
2024/03/15 03:59:00;;;;;;;;;;;13.10;99.90;;;13.19;69.22;99595.72;4926321;29;19927;-83
2024/03/15 04:01:27;;;;;;;;;;;13.10;99.90;;;13.21;69.18;99598.94;4926529;29;20017;-83
2024/03/15 04:03:54;;;;;;;;;;;13.10;99.90;;;13.22;69.21;99604.06;4942152;29;19934;-83
2024/03/15 04:06:22;;;;;;;;;;;13.20;99.90;;;13.21;69.56;99599.75;4926085;29;19927;-83
2024/03/15 04:08:49;;;;;;;;;;;13.10;99.90;;;13.22;69.51;99595.22;4941702;29;19926;-83
2024/03/15 04:11:16;;;;;;;;;;;13.10;99.90;;;13.21;69.43;99602.44;4942384;29;19938;-83
2024/03/15 04:13:44;;;;;;;;;;;13.10;99.90;;;13.21;69.40;99590.91;4942311;29;19931;-82
2024/03/15 04:16:11;;;;;;;;;;;13.10;99.90;;;13.15;69.31;99595.41;4926192;29;19962;-83
2024/03/15 04:18:40;;;;;;;;;;;13.00;99.90;;;13.17;69.31;99593.28;4926458;29;19931;-83
2024/03/15 04:21:10;;;;;;;;;;;13.10;99.90;;;13.16;69.40;99586.31;4926717;29;19974;-83
2024/03/15 04:23:38;;;;;;;;;;;13.10;99.90;;;13.14;69.23;99588.44;4927398;29;19926;-83
2024/03/15 04:26:05;;;;;;;;;;;13.10;99.90;;;13.14;69.44;99577.72;4925558;29;19927;-83
2024/03/15 04:28:32;;;;;;;;;;;13.10;99.90;;;13.09;69.50;99575.78;4942076;29;20017;-83
2024/03/15 04:30:59;;;;;;;;;;;13.10;99.90;;;13.10;69.51;99582.75;4941813;29;19937;-83
2024/03/15 04:33:27;;;;;;;;;;;13.10;99.90;;;13.13;69.43;99570.75;4941709;29;20392;-83
2024/03/15 04:35:55;;;;;;;;;;;13.10;99.90;;;13.08;69.66;99576.06;4942200;29;19926;-83
2024/03/15 04:38:25;;;;;;;;;;;13.10;99.90;;;13.11;69.33;99570.19;4941734;29;19927;-83
2024/03/15 04:40:52;;;;;;;;;;;13.10;99.90;;;13.12;69.33;99579.81;4942601;29;20013;-83
2024/03/15 04:43:20;;;;;;;;;;;13.10;99.90;;;13.12;69.47;99569.91;4938135;29;19927;-84
2024/03/15 04:45:48;;;;;;;;;;;13.10;99.90;;;13.13;69.58;99566.22;4901127;29;19926;-84
2024/03/15 04:48:16;;;;;;;;;;;13.10;99.90;;;13.08;69.55;99573.38;4941135;29;19926;-83
2024/03/15 04:50:43;;;;;;;;;;;13.10;99.90;;;13.08;69.75;99576.06;4940035;29;19930;-83
2024/03/15 04:53:12;;;;;;;;;;;13.10;99.90;;;13.09;69.67;99578.47;4924119;29;19926;-82
2024/03/15 04:55:40;;;;;;;;;;;13.10;99.90;;;13.10;69.62;99576.59;4940669;29;19927;-82
2024/03/15 04:58:11;;;;;;;;;;;13.10;99.90;;;13.10;69.76;99587.31;4940164;29;19927;-83
2024/03/15 05:00:38;;;;;;;;;;;13.00;99.90;;;13.10;69.61;99585.44;4940447;29;19931;-83
2024/03/15 05:03:06;;;;;;;;;;;13.00;99.90;;;13.06;69.65;99586.19;4940073;29;20013;-83
2024/03/15 05:05:33;;;;;;;;;;;13.00;99.90;;;13.03;69.66;99590.19;4940004;29;20021;-83
2024/03/15 05:08:02;;;;;;;;;;;13.00;99.90;;;13.05;69.69;99580.03;4942022;29;19950;-82
2024/03/15 05:10:29;;;;;;;;;;;13.00;99.90;;;13.01;70.01;99583.44;4942199;29;19973;-84
2024/03/15 05:12:57;;;;;;;;;;;13.00;99.90;;;13.02;69.99;99585.88;4939856;29;19930;-82
2024/03/15 05:15:24;;;;;;;;;;;13.10;99.90;;;13.06;70.08;99586.19;4924678;29;20316;-83
2024/03/15 05:17:51;;;;;;;;;;;13.10;99.90;;;13.04;70.27;99582.97;4940416;29;20021;-83
2024/03/15 05:20:19;;;;;;;;;;;13.00;99.90;;;13.05;70.27;99579.22;4940216;29;19985;-83
2024/03/15 05:22:46;;;;;;;;;;;13.10;99.90;;;13.06;70.13;99584.31;4939840;29;20163;-83
2024/03/15 05:25:15;;;;;;;;;;;13.10;99.90;;;13.02;70.35;99590.41;4939970;29;19933;-83
2024/03/15 05:27:42;;;;;;;;;;;13.10;99.90;;;13.01;70.47;99588.81;4939927;29;19926;-82
2024/03/15 05:30:11;;;;;;;;;;;13.00;99.90;;;13.02;70.61;99585.06;4924098;29;20441;-82
2024/03/15 05:32:39;;;;;;;;;;;13.00;99.90;;;13.03;70.67;99589.34;4939960;29;19990;-83
2024/03/15 05:35:06;;;;;;;;;;;13.10;99.90;;;13.00;70.78;99592.53;4939984;29;19926;-83
2024/03/15 05:37:33;;;;;;;;;;;13.10;99.90;;;12.98;71.59;99592.81;4939687;29;19931;-83
2024/03/15 05:40:01;;;;;;;;;;;13.00;99.90;;;13.02;71.40;99595.75;4940062;28;19957;-82
2024/03/15 05:42:31;;;;;;;;;;;13.00;99.90;;;13.05;71.84;99600.63;4942466;29;19933;-82
2024/03/15 05:44:58;;;;;;;;;;;13.00;99.90;;;13.02;71.88;99599.25;4943957;29;19934;-83
2024/03/15 05:47:25;;;;;;;;;;;13.00;99.90;;;13.00;72.26;99601.38;4927630;29;19930;-83
2024/03/15 05:49:54;;;;;;;;;;;13.00;99.90;;;12.97;72.24;99604.53;4943248;29;20043;-84
2024/03/15 05:52:22;;;;;;;;;;;13.00;99.90;;;12.96;72.60;99613.63;4944265;29;20304;-83
2024/03/15 05:54:49;;;;;;;;;;;13.00;99.90;;;12.99;72.75;99607.78;4944481;29;20745;-86
2024/03/15 05:57:18;;;;;;;;;;;13.00;99.90;;;13.00;72.73;99613.94;4944968;29;20380;-87
2024/03/15 05:59:45;;;;;;;;;;;13.00;99.90;;;13.01;72.71;99615.56;4941814;29;19934;-87
2024/03/15 06:02:14;;;;;;;;;;;13.00;99.90;;;13.01;72.49;99608.34;4925422;29;19927;-87
2024/03/15 06:04:42;;;;;;;;;;;13.00;99.90;;;13.06;72.49;99615.63;4925569;29;19978;-87
2024/03/15 06:07:10;;;;;;;;;;;13.00;99.90;;;13.07;72.51;99617.25;4940586;29;19931;-86
2024/03/15 06:09:38;;;;;;;;;;;13.00;99.90;;;13.07;72.41;99619.91;4926200;29;19930;-87
2024/03/15 06:12:06;;;;;;;;;;;13.00;99.90;;;13.04;72.47;99621.25;4941668;29;20335;-87
2024/03/15 06:14:33;;;;;;;;;;;13.00;99.90;;;13.07;72.22;99614.56;4921356;29;19978;-87
2024/03/15 06:17:01;;;;;;;;;;;13.00;99.90;;;13.07;72.14;99625.28;4924878;29;19927;-87
2024/03/15 06:19:28;;;;;;;;;;;13.00;99.90;;;13.03;72.20;99627.66;4941113;29;19934;-88
2024/03/15 06:21:56;;;;;;;;;;;13.00;99.90;;;13.07;72.18;99627.94;4942666;29;19999;-87
2024/03/15 06:24:25;;;;;;;;;;;13.00;99.90;;;13.07;72.25;99631.44;4943252;29;19968;-87
2024/03/15 06:26:54;;;;;;;;;;;13.10;99.90;;;13.05;72.23;99630.88;4941562;29;19927;-81
2024/03/15 06:29:23;;;;;;;;;;;13.00;99.90;;;13.08;72.12;99632.28;4928235;29;19934;-83
2024/03/15 06:31:55;;;;;;;;;;;13.10;99.90;;;13.10;72.02;99638.19;4944696;29;19926;-83
2024/03/15 06:34:23;;;;;;;;;;;13.10;99.90;;;13.11;72.12;99637.09;4941028;29;19934;-83
2024/03/15 06:36:53;;;;;;;;;;;13.10;99.90;;;13.15;72.10;99632.88;4910971;29;19930;-83
2024/03/15 06:39:25;;;;;;;;;;;13.10;99.90;;;13.10;72.12;99636.31;4939691;29;19926;-83
2024/03/15 06:41:53;;;;;;;;;;;13.10;99.90;;;13.07;72.31;99631.44;4943978;29;19934;-83
2024/03/15 06:44:25;;;;;;;;;;;13.10;99.90;;;13.06;72.35;99637.03;4943394;29;19967;-82
2024/03/15 06:47:15;;;;;;;;;;;13.10;99.90;;;13.09;72.16;99634.69;4927838;29;19933;-82
2024/03/15 06:49:48;;;;;;;;;;;13.10;99.90;;;13.12;72.44;99636.03;4946713;29;19942;-83
2024/03/15 06:55:01;;;;;;;;;;;13.10;99.90;;;13.13;72.25;99635.81;4944811;29;19965;-83
2024/03/15 06:57:29;;;;;;;;;;;13.10;99.90;;;13.17;72.21;99646.00;4943045;29;19926;-83
2024/03/15 06:59:57;;;;;;;;;;;13.20;99.90;;;13.16;72.08;99642.53;4942443;29;20392;-83
2024/03/15 07:02:25;;;;;;;;;;;13.20;99.90;;;13.17;72.35;99646.00;4943383;29;19934;-83
2024/03/15 07:04:52;;;;;;;;;;;13.20;99.90;;;13.11;72.58;99650.50;4943004;29;20017;-83
2024/03/15 07:07:19;;;;;;;;;;;13.20;99.90;;;13.13;73.09;99656.44;4927380;29;19962;-81
2024/03/15 07:09:47;;;;;;;;;;;13.20;99.90;;;13.09;73.25;99655.31;4943274;29;19934;-83
2024/03/15 07:12:15;;;;;;;;;;;13.20;99.90;;;13.08;73.34;99659.84;4943539;29;19941;-83
2024/03/15 07:14:43;;;;;;;;;;;13.20;99.90;;;13.13;73.09;99654.56;4944263;29;19926;-84
2024/03/15 07:17:10;;;;;;;;;;;13.20;99.90;;;13.18;73.09;99661.03;4927218;29;19937;-83
2024/03/15 07:19:38;;;;;;;;;;;13.20;99.90;;;13.18;73.31;99659.16;4943212;29;19959;-83
2024/03/15 07:22:08;;;;;;;;;;;13.20;99.90;;;13.18;72.84;99669.88;4943202;29;19985;-84
2024/03/15 07:24:35;;;;;;;;;;;13.20;99.90;;;13.21;72.67;99658.66;4943578;29;19930;-83
2024/03/15 07:27:04;;;;;;;;;;;13.30;99.90;;;13.24;72.74;99665.44;4942943;29;20452;-83
2024/03/15 07:29:32;;;;;;;;;;;13.30;99.90;;;13.26;73.07;99669.47;4942869;29;19926;-83
2024/03/15 07:32:01;;;;;;;;;;;13.30;99.90;;;13.29;72.94;99666.31;4942674;29;19937;-84
2024/03/15 07:34:28;;;;;;;;;;;13.30;99.90;;;13.30;72.76;99673.28;4927157;29;19931;-83
2024/03/15 07:36:57;;;;;;;;;;;13.30;99.90;;;13.24;73.49;99676.94;4942706;29;20359;-83
2024/03/15 07:39:28;;;;;;;;;;;13.30;99.90;;;13.28;73.51;99680.75;4942622;29;19934;-83
2024/03/15 07:41:59;;;;;;;;;;;13.30;99.90;;;13.27;73.45;99678.31;4943516;29;19931;-82
2024/03/15 07:44:27;;;;;;;;;;;13.30;99.90;;;13.30;73.55;99678.63;4943799;29;19930;-84
2024/03/15 07:46:56;;;;;;;;;;;13.40;99.90;;;13.27;74.10;99684.47;4942540;29;19926;-83
2024/03/15 07:49:25;;;;;;;;;;;13.30;99.90;;;13.29;74.46;99695.75;4942856;29;20351;-83
2024/03/15 07:51:53;;;;;;;;;;;13.30;99.90;;;13.23;74.70;99693.28;4927245;29;19957;-83
2024/03/15 07:54:21;;;;;;;;;;;13.30;99.90;;;13.23;75.11;99683.38;4926653;29;19997;-83
2024/03/15 07:56:48;;;;;;;;;;;13.30;99.90;;;13.18;75.78;99696.66;4942456;29;20403;-83
2024/03/15 07:59:18;;;;;;;;;;;13.30;99.90;;;13.17;76.16;99695.00;4942369;29;19982;-83
2024/03/15 08:01:45;;;;;;;;;;;13.30;99.90;;;13.22;76.28;99689.75;4942420;29;20732;-83
2024/03/15 08:04:14;;;;;;;;;;;13.30;99.90;;;13.26;76.91;99688.22;4941919;29;19933;-83
2024/03/15 08:06:41;;;;;;;;;;;13.30;99.90;;;13.29;77.13;99693.09;4942608;28;19930;-83
2024/03/15 08:09:11;;;;;;;;;;;13.30;99.90;;;13.32;76.97;99689.91;4942041;29;19930;-83
2024/03/15 08:11:38;;;;;;;;;;;13.40;99.90;;;13.36;77.12;99691.00;4926871;29;19930;-84
2024/03/15 08:14:06;;;;;;;;;;;13.40;99.90;;;13.37;76.98;99700.69;4941868;29;19930;-86
2024/03/15 08:16:37;;;;;;;;;;;13.50;99.90;;;13.38;76.59;99696.94;4940356;29;19966;-86
2024/03/15 08:19:06;;;;;;;;;;;13.50;99.90;;;13.38;76.30;99699.63;4922915;29;20017;-84
2024/03/15 08:21:34;;;;;;;;;;;13.50;99.90;;;13.35;76.88;99702.78;4925510;29;19934;-85
2024/03/15 08:24:04;;;;;;;;;;;13.50;99.90;;;13.36;76.82;99708.94;4914325;29;20056;-84
2024/03/15 08:26:31;;;;;;;;;;;13.40;99.90;;;13.33;77.22;99709.47;4942172;29;20025;-83
2024/03/15 08:28:58;;;;;;;;;;;13.40;99.90;;;13.31;77.48;99712.38;4941865;29;19933;-84
2024/03/15 08:31:25;;;;;;;;;;;13.50;99.90;;;13.31;77.48;99701.66;4941721;29;19950;-85
2024/03/15 08:33:53;;;;;;;;;;;13.50;99.90;;;13.28;77.54;99691.47;4942189;29;19926;-84
2024/03/15 08:36:22;;;;;;;;;;;13.40;99.90;;;13.32;77.83;99707.81;4924751;29;19960;-83
2024/03/15 08:38:50;;;;;;;;;;;13.40;99.90;;;13.33;77.81;99707.59;4939398;29;19981;-84
2024/03/15 08:41:17;;;;;;;;;;;13.50;99.90;;;13.36;77.67;99712.44;4941419;29;19926;-84
2024/03/15 08:43:45;;;;;;;;;;;13.50;99.90;;;13.36;78.08;99709.75;4941569;29;19926;-84
2024/03/15 08:46:13;;;;;;;;;;;13.50;99.90;;;13.39;77.75;99714.63;4926566;29;20378;-84
2024/03/15 08:48:42;;;;;;;;;;;13.50;99.90;;;13.39;77.91;99708.47;4939637;29;19927;-84
2024/03/15 08:51:09;;;;;;;;;;;13.50;99.90;;;13.36;78.04;99711.63;4908126;29;20462;-84
2024/03/15 08:53:37;;;;;;;;;;;13.40;99.90;;;13.42;77.77;99717.88;4921986;29;20420;-84
2024/03/15 08:56:04;;;;;;;;;;;13.50;99.90;;;13.43;78.19;99716.81;4910606;29;19985;-84
2024/03/15 08:58:32;;;;;;;;;;;13.50;99.90;;;13.45;78.14;99718.19;4925305;29;19981;-84
2024/03/15 09:00:59;;;;;;;;;;;13.50;99.90;;;13.45;78.19;99722.72;4941321;29;20317;-84
2024/03/15 09:03:26;;;;;;;;;;;13.50;99.90;;;13.50;78.07;99720.94;4941812;29;19926;-84
2024/03/15 09:05:54;;;;;;;;;;;13.60;99.90;;;13.51;77.94;99722.53;4940680;29;19926;-84
2024/03/15 09:08:21;;;;;;;;;;;13.60;99.90;;;13.47;77.79;99721.44;4925046;29;19950;-83
2024/03/15 09:10:48;;;;;;;;;;;13.60;99.90;;;13.49;77.76;99731.91;4941161;29;20347;-84
2024/03/15 09:13:17;;;;;;;;;;;13.50;99.90;;;13.49;77.68;99723.88;4942055;29;19934;-84
2024/03/15 09:15:44;;;;;;;;;;;13.60;99.90;;;13.52;78.09;99728.72;4942763;29;19977;-84
2024/03/15 09:18:12;;;;;;;;;;;13.60;99.90;;;13.54;77.97;99727.41;4945529;29;20379;-83
2024/03/15 09:20:42;;;;;;;;;;;13.60;99.90;;;13.56;77.97;99713.75;4945591;29;19966;-84
2024/03/15 09:23:12;;;;;;;;;;;13.70;99.90;;;13.58;77.95;99723.19;4945635;29;19927;-84
2024/03/15 09:25:39;;;;;;;;;;;13.70;99.90;;;13.59;78.02;99724.78;4945001;28;19965;-84
2024/03/15 09:28:09;;;;;;;;;;;13.70;99.90;;;13.58;77.95;99727.72;4944662;29;19926;-84
2024/03/15 09:30:46;;;;;;;;;;;13.80;99.90;;;13.64;78.36;99726.72;4945635;29;19931;-83
2024/03/15 09:33:13;;;;;;;;;;;13.80;99.90;;;13.67;78.04;99714.72;4942093;29;19927;-83
2024/03/15 09:35:44;;;;;;;;;;;13.80;99.90;;;13.71;77.93;99718.50;4916419;29;19977;-83
2024/03/15 09:38:12;;;;;;;;;;;13.90;99.90;;;13.77;77.90;99714.84;4911989;29;20019;-84
2024/03/15 09:40:39;;;;;;;;;;;13.90;99.90;;;13.75;77.58;99707.03;4926170;29;20388;-84
2024/03/15 09:43:08;;;;;;;;;;;13.90;99.90;;;13.80;77.73;99707.06;4945023;29;19982;-84
2024/03/15 09:45:36;;;;;;;;;;;14.00;99.90;;;13.86;77.86;99718.69;4945014;29;20388;-85
2024/03/15 09:48:04;;;;;;;;;;;14.00;99.90;;;13.87;77.77;99713.06;4944371;29;19926;-84
2024/03/15 09:50:32;;;;;;;;;;;14.10;99.90;;;13.85;77.33;99709.81;4944788;29;19954;-84
2024/03/15 09:52:59;;;;;;;;;;;14.10;99.90;;;13.88;77.42;99713.88;4928605;29;19981;-84
2024/03/15 09:55:27;;;;;;;;;;;14.10;99.90;;;13.93;77.23;99713.13;4944628;29;20017;-84
2024/03/15 09:57:54;;;;;;;;;;;14.10;99.90;;;13.98;77.27;99713.19;4944619;29;19951;-83
2024/03/15 10:00:22;;;;;;;;;;;14.20;99.90;;;14.03;77.40;99711.34;4928068;29;20434;-82
2024/03/15 10:02:49;;;;;;;;;;;14.20;99.90;;;14.06;77.40;99704.69;4944096;29;19985;-84
2024/03/15 10:05:17;;;;;;;;;;;14.30;99.90;;;14.10;77.12;99711.13;4927873;29;19954;-84
2024/03/15 10:07:46;;;;;;;;;;;14.30;99.90;;;14.12;76.44;99711.72;4944663;29;19927;-84
2024/03/15 10:10:14;;;;;;;;;;;14.30;99.90;;;14.12;76.51;99704.47;4944596;29;20376;-83
2024/03/15 10:12:44;;;;;;;;;;;14.30;99.90;;;14.12;76.34;99709.84;4943987;29;19930;-85
2024/03/15 10:15:12;;;;;;;;;;;14.30;99.90;;;14.14;76.72;99704.22;4943892;29;20098;-84
2024/03/15 10:17:40;;;;;;;;;;;14.40;99.90;;;14.12;76.36;99712.53;4944119;29;19937;-84
2024/03/15 10:20:12;;;;;;;;;;;14.30;99.90;;;14.14;76.10;99704.22;4944146;29;19927;-84
2024/03/15 10:22:40;;;;;;;;;;;14.40;99.90;;;14.19;76.11;99706.94;4943670;29;19930;-84
2024/03/15 10:25:10;;;;;;;;;;;14.40;99.90;;;14.24;76.35;99708.88;4944358;29;19965;-84
2024/03/15 10:27:38;;;;;;;;;;;14.50;99.90;;;14.31;76.57;99712.16;4943436;29;19933;-84
2024/03/15 10:30:09;;;;;;;;;;;14.50;99.90;;;14.32;76.01;99703.88;4944033;29;19926;-84
2024/03/15 10:32:37;;;;;;;;;;;14.60;99.90;;;14.33;75.54;99715.41;4928231;29;20379;-84
2024/03/15 10:35:06;;;;;;;;;;;14.50;99.90;;;14.33;75.46;99700.09;4943203;29;19927;-84
2024/03/15 10:37:34;;;;;;;;;;;14.50;99.90;;;14.35;75.49;99719.47;4944402;29;19926;-83
2024/03/15 10:40:04;;;;;;;;;;;14.50;99.90;;;14.35;74.98;99700.69;4927703;29;19973;-84
2024/03/15 10:42:31;;;;;;;;;;;14.50;99.90;;;14.34;74.53;99699.03;4927976;29;20330;-84
2024/03/15 10:44:59;;;;;;;;;;;14.50;99.90;;;14.35;74.73;99702.56;4943413;29;19931;-84
2024/03/15 10:47:26;;;;;;;;;;;14.50;99.90;;;14.38;74.22;99694.78;4943382;29;19926;-84
2024/03/15 10:49:54;;;;;;;;;;;14.50;99.90;;;14.46;73.57;99704.25;4943865;29;19934;-84
2024/03/15 10:52:22;;;;;;;;;;;14.60;99.90;;;14.49;72.88;99698.38;4943879;29;20463;-84
2024/03/15 10:54:50;;;;;;;;;;;14.70;99.90;;;14.51;71.49;99696.28;4943647;29;20486;-83
2024/03/15 10:57:18;;;;;;;;;;;14.70;99.90;;;14.53;70.92;99696.81;4927525;29;19933;-84
2024/03/15 10:59:45;;;;;;;;;;;14.70;99.90;;;14.55;71.01;99691.22;4943405;29;20307;-84
2024/03/15 11:02:13;;;;;;;;;;;14.70;99.90;;;14.52;71.20;99703.25;4943450;29;20328;-84
2024/03/15 11:04:40;;;;;;;;;;;14.70;99.90;;;14.47;71.23;99697.00;4943690;29;19930;-84
2024/03/15 11:07:08;;;;;;;;;;;14.70;99.90;;;14.53;71.76;99693.31;4942846;29;19927;-85
2024/03/15 11:09:35;;;;;;;;;;;14.70;99.90;;;14.62;71.02;99689.09;4943087;29;19927;-84
2024/03/15 11:12:03;;;;;;;;;;;14.80;99.90;;;14.70;70.59;99687.84;4942722;29;19927;-86
2024/03/15 11:14:37;;;;;;;;;;;14.90;99.90;;;14.78;71.05;99679.28;4942911;29;20376;-83
2024/03/15 11:17:06;;;;;;;;;;;15.00;99.90;;;14.87;70.38;99685.78;4943771;29;19985;-83
2024/03/15 11:19:45;;;;;;;;;;;15.10;99.90;;;14.90;69.08;99686.09;4942866;29;19937;-83
2024/03/15 11:22:19;;;;;;;;;;;15.10;99.90;;;14.97;69.03;99685.84;4942298;29;19950;-83